createdAt,value
2023-04-29T00:01:15.714Z,6.93
2023-04-29T00:03:42.599Z,6.07
2023-04-29T00:06:11.493Z,6.05
2023-04-29T00:08:38.384Z,5.93
2023-04-29T00:11:05.193Z,6.88
2023-04-29T00:13:32.041Z,6.45
2023-04-29T00:15:58.783Z,5.72
2023-04-29T00:18:25.596Z,8.77
2023-04-29T00:20:53.601Z,7.03
2023-04-29T00:23:20.409Z,6.00
2023-04-29T00:25:47.217Z,7.03
2023-04-29T00:28:13.954Z,7.05
2023-04-29T00:30:42.189Z,6.60
2023-04-29T00:33:09.044Z,7.60
2023-04-29T00:35:36.245Z,7.32
2023-04-29T00:38:03.008Z,6.13
2023-04-29T00:40:29.775Z,7.93
2023-04-29T00:42:57.204Z,8.88
2023-04-29T00:45:24.234Z,5.80
2023-04-29T00:47:51.551Z,6.53
2023-04-29T00:50:21.638Z,7.45
2023-04-29T00:52:49.001Z,8.00
2023-04-29T00:55:15.856Z,7.10
2023-04-29T00:57:42.762Z,7.95
2023-04-29T01:00:10.275Z,6.95
2023-04-29T01:02:37.704Z,7.13
2023-04-29T01:05:04.812Z,7.78
2023-04-29T01:07:42.555Z,7.20
2023-04-29T01:10:25.808Z,7.68
2023-04-29T01:13:18.120Z,7.00
2023-04-29T01:16:01.134Z,8.93
2023-04-29T01:18:54.463Z,7.85
2023-04-29T01:21:21.595Z,8.80
2023-04-29T01:23:53.700Z,8.05
2023-04-29T01:26:20.476Z,6.55
2023-04-29T01:29:14.823Z,8.07
2023-04-29T01:31:49.248Z,8.52
2023-04-29T01:34:39.186Z,8.82
2023-04-29T01:37:11.834Z,7.13
2023-04-29T01:42:34.751Z,7.65
2023-04-29T01:45:05.568Z,8.77
2023-04-29T01:47:33.131Z,7.80
2023-04-29T01:50:00.181Z,9.43
2023-04-29T01:52:28.222Z,7.50
2023-04-29T01:54:55.189Z,8.90
2023-04-29T01:57:21.969Z,8.65
2023-04-29T01:59:48.805Z,7.88
2023-04-29T02:02:15.898Z,7.90
2023-04-29T02:04:43.037Z,8.60
2023-04-29T02:07:09.926Z,7.53
2023-04-29T02:09:36.847Z,7.18
2023-04-29T02:12:04.832Z,8.57
2023-04-29T02:14:31.741Z,7.32
2023-04-29T02:16:58.508Z,7.63
2023-04-29T02:19:25.210Z,8.88
2023-04-29T02:21:51.918Z,7.50
2023-04-29T02:24:18.699Z,7.88
2023-04-29T02:26:45.408Z,7.85
2023-04-29T02:29:12.413Z,7.60
2023-04-29T02:31:39.289Z,8.88
2023-04-29T02:34:06.077Z,8.98
2023-04-29T02:36:32.979Z,8.55
2023-04-29T02:39:02.685Z,9.25
2023-04-29T02:41:29.491Z,9.25
2023-04-29T02:43:56.342Z,9.10
2023-04-29T02:46:23.195Z,7.78
2023-04-29T02:48:50.053Z,10.60
2023-04-29T02:51:16.865Z,8.80
2023-04-29T02:53:44.203Z,7.35
2023-04-29T02:56:11.666Z,9.00
2023-04-29T02:58:38.401Z,9.77
2023-04-29T03:01:05.154Z,11.15
2023-04-29T03:03:32.049Z,9.65
2023-04-29T03:05:58.907Z,8.68
2023-04-29T03:08:25.575Z,10.38
2023-04-29T03:10:52.401Z,9.18
2023-04-29T03:13:19.144Z,9.75
2023-04-29T03:15:45.980Z,10.60
2023-04-29T03:18:12.924Z,9.57
2023-04-29T03:20:39.728Z,9.13
2023-04-29T03:23:06.499Z,8.90
2023-04-29T03:25:33.353Z,8.88
2023-04-29T03:28:00.069Z,9.63
2023-04-29T03:30:26.836Z,9.55
2023-04-29T03:32:53.677Z,8.77
2023-04-29T03:35:20.470Z,8.98
2023-04-29T03:37:47.176Z,8.35
2023-04-29T03:40:14.229Z,8.15
2023-04-29T03:42:41.321Z,8.60
2023-04-29T03:45:08.592Z,9.35
2023-04-29T03:47:35.881Z,7.90
2023-04-29T03:50:02.752Z,8.98
2023-04-29T03:52:29.658Z,9.85
2023-04-29T03:54:56.445Z,8.60
2023-04-29T03:57:23.893Z,8.52
2023-04-29T03:59:50.973Z,9.32
2023-04-29T04:02:18.156Z,8.70
2023-04-29T04:04:45.477Z,8.93
2023-04-29T04:07:12.379Z,9.20
2023-04-29T04:09:39.148Z,9.10
2023-04-29T04:12:07.010Z,8.45
2023-04-29T04:14:34.610Z,10.07
2023-04-29T04:17:01.551Z,10.73
2023-04-29T04:19:29.281Z,9.18
2023-04-29T04:21:56.241Z,9.15
2023-04-29T04:24:23.810Z,8.43
2023-04-29T04:26:50.649Z,8.75
2023-04-29T04:29:17.366Z,8.90
2023-04-29T04:31:46.811Z,8.90
2023-04-29T04:34:13.895Z,7.97
2023-04-29T04:36:41.437Z,8.32
2023-04-29T04:39:08.436Z,8.60
2023-04-29T04:41:35.690Z,9.48
2023-04-29T04:44:03.076Z,9.02
2023-04-29T04:46:29.796Z,7.25
2023-04-29T04:48:56.516Z,8.07
2023-04-29T04:51:23.275Z,9.10
2023-04-29T04:53:49.982Z,7.97
2023-04-29T04:56:16.732Z,7.90
2023-04-29T04:58:43.915Z,8.20
2023-04-29T05:01:10.652Z,7.30
2023-04-29T05:03:37.469Z,8.63
2023-04-29T05:06:04.629Z,7.72
2023-04-29T05:08:31.456Z,8.30
2023-04-29T05:10:58.507Z,6.85
2023-04-29T05:13:25.598Z,7.35
2023-04-29T05:15:52.354Z,8.75
2023-04-29T05:18:19.073Z,9.32
2023-04-29T05:20:45.846Z,8.70
2023-04-29T05:23:12.618Z,6.88
2023-04-29T05:25:39.289Z,8.43
2023-04-29T05:28:07.074Z,8.98
2023-04-29T05:30:33.794Z,8.48
2023-04-29T05:33:00.659Z,7.20
2023-04-29T05:35:27.503Z,7.72
2023-04-29T05:37:54.266Z,9.75
2023-04-29T05:40:23.283Z,8.20
2023-04-29T05:42:50.103Z,8.50
2023-04-29T05:45:17.001Z,9.50
2023-04-29T05:47:43.777Z,8.82
2023-04-29T05:50:11.511Z,7.85
2023-04-29T05:52:39.082Z,8.10
2023-04-29T05:55:06.086Z,9.60
2023-04-29T05:57:32.843Z,8.77
2023-04-29T06:00:00.041Z,9.82
2023-04-29T06:02:27.566Z,9.75
2023-04-29T06:04:54.816Z,9.00
2023-04-29T06:07:21.923Z,8.70
2023-04-29T06:09:48.657Z,8.15
2023-04-29T06:12:15.357Z,9.40
2023-04-29T06:14:42.385Z,9.07
2023-04-29T06:17:09.253Z,8.95
2023-04-29T06:19:36.106Z,8.77
2023-04-29T06:22:02.854Z,9.07
2023-04-29T06:24:32.459Z,8.88
2023-04-29T06:26:59.151Z,7.10
2023-04-29T06:29:25.966Z,7.28
2023-04-29T06:31:53.153Z,6.60
2023-04-29T06:34:19.892Z,5.88
2023-04-29T06:36:46.717Z,6.10
2023-04-29T06:39:13.417Z,5.93
2023-04-29T06:41:40.617Z,6.32
2023-04-29T06:44:07.644Z,5.32
2023-04-29T06:46:34.422Z,5.90
2023-04-29T06:49:01.252Z,5.20
2023-04-29T06:51:29.222Z,5.43
2023-04-29T06:53:56.384Z,4.53
2023-04-29T06:56:23.994Z,5.53
2023-04-29T06:58:51.371Z,5.20
2023-04-29T07:01:18.869Z,6.75
2023-04-29T07:03:45.763Z,6.03
2023-04-29T07:06:12.824Z,5.57
2023-04-29T07:08:39.484Z,6.25
2023-04-29T07:11:06.255Z,5.78
2023-04-29T07:13:33.460Z,5.30
2023-04-29T07:16:00.358Z,5.68
2023-04-29T07:18:27.134Z,6.35
2023-04-29T07:20:55.731Z,4.75
2023-04-29T07:23:22.515Z,6.18
2023-04-29T07:25:49.201Z,7.00
2023-04-29T07:28:15.955Z,6.18
2023-04-29T07:30:42.710Z,6.00
2023-04-29T07:33:10.103Z,5.93
2023-04-29T07:35:36.796Z,5.70
2023-04-29T07:38:03.451Z,5.05
2023-04-29T07:40:30.147Z,3.75
2023-04-29T07:42:56.908Z,4.47
2023-04-29T07:45:23.576Z,4.70
2023-04-29T07:47:50.426Z,3.42
2023-04-29T07:50:17.365Z,4.03
2023-04-29T07:52:44.031Z,3.13
2023-04-29T07:55:10.824Z,4.22
2023-04-29T07:57:37.608Z,4.18
2023-04-29T08:00:04.830Z,3.92
2023-04-29T08:02:31.678Z,4.20
2023-04-29T08:04:59.155Z,3.80
2023-04-29T08:07:26.337Z,5.57
2023-04-29T08:09:53.146Z,3.00
2023-04-29T08:12:19.881Z,3.25
2023-04-29T08:14:46.600Z,4.05
2023-04-29T08:17:15.747Z,4.03
2023-04-29T08:19:42.482Z,3.80
2023-04-29T08:22:11.231Z,4.88
2023-04-29T08:24:38.083Z,3.83
2023-04-29T08:27:04.846Z,5.15
2023-04-29T08:29:34.803Z,4.72
2023-04-29T08:32:01.824Z,3.75
2023-04-29T08:34:28.733Z,3.33
2023-04-29T08:37:00.139Z,4.63
2023-04-29T08:39:29.003Z,3.50
2023-04-29T08:41:57.418Z,3.22
2023-04-29T08:44:30.085Z,3.40
2023-04-29T08:46:59.562Z,3.13
2023-04-29T08:49:27.927Z,3.17
2023-04-29T08:51:54.711Z,3.15
2023-04-29T08:54:21.637Z,3.05
2023-04-29T08:56:49.004Z,4.65
2023-04-29T08:59:18.321Z,2.95
2023-04-29T09:01:50.798Z,3.50
2023-04-29T09:04:29.253Z,2.67
2023-04-29T09:06:57.983Z,3.58
2023-04-29T09:09:28.885Z,3.75
2023-04-29T09:11:55.924Z,2.58
2023-04-29T09:14:26.279Z,2.40
2023-04-29T09:16:53.632Z,2.70
2023-04-29T09:19:34.919Z,3.05
2023-04-29T09:22:04.789Z,3.28
2023-04-29T09:24:32.502Z,2.70
2023-04-29T09:27:00.561Z,3.63
2023-04-29T09:29:27.307Z,3.08
2023-04-29T09:31:54.185Z,2.85
2023-04-29T09:34:40.726Z,2.95
2023-04-29T09:37:28.032Z,3.80
2023-04-29T09:39:55.232Z,3.28
2023-04-29T09:42:22.074Z,3.40
2023-04-29T09:44:48.950Z,3.00
2023-04-29T09:47:15.715Z,3.22
2023-04-29T09:49:46.112Z,3.28
2023-04-29T09:52:16.551Z,3.67
2023-04-29T09:54:44.534Z,4.35
2023-04-29T09:57:12.818Z,3.90
2023-04-29T09:59:40.716Z,2.95
2023-04-29T10:02:16.031Z,2.65
2023-04-29T10:04:46.587Z,2.33
2023-04-29T10:07:17.991Z,2.85
2023-04-29T10:09:47.879Z,3.65
2023-04-29T10:12:17.886Z,3.20
2023-04-29T10:14:55.186Z,2.95
2023-04-29T10:17:32.768Z,3.40
2023-04-29T10:20:06.384Z,2.63
2023-04-29T10:22:46.758Z,2.83
2023-04-29T10:25:16.095Z,2.88
2023-04-29T10:27:44.484Z,3.08
2023-04-29T10:30:16.159Z,2.63
2023-04-29T10:35:20.015Z,2.30
2023-04-29T10:37:50.659Z,2.60
2023-04-29T10:40:30.663Z,3.25
2023-04-29T10:42:57.600Z,3.17
2023-04-29T10:45:36.061Z,3.17
2023-04-29T10:48:03.018Z,3.50
2023-04-29T10:50:30.744Z,3.60
2023-04-29T10:52:58.752Z,2.47
2023-04-29T10:55:25.937Z,3.10
2023-04-29T10:57:57.074Z,2.33
2023-04-29T11:00:27.693Z,2.78
2023-04-29T11:02:55.757Z,2.88
2023-04-29T11:05:36.575Z,3.20
2023-04-29T11:08:13.362Z,2.55
2023-04-29T11:10:50.764Z,2.55
2023-04-29T11:13:28.894Z,2.80
2023-04-29T11:16:09.464Z,3.10
2023-04-29T11:18:55.996Z,2.40
2023-04-29T11:21:23.475Z,3.05
2023-04-29T11:23:52.196Z,2.80
2023-04-29T11:26:22.257Z,3.10
2023-04-29T11:28:51.890Z,2.15
2023-04-29T11:31:18.651Z,2.72
2023-04-29T11:33:47.008Z,3.03
2023-04-29T11:36:14.362Z,2.10
2023-04-29T11:38:41.686Z,3.05
2023-04-29T11:41:11.179Z,2.28
2023-04-29T11:43:39.888Z,2.60
2023-04-29T11:46:13.726Z,2.70
2023-04-29T11:48:48.238Z,2.13
2023-04-29T11:51:17.625Z,2.83
2023-04-29T11:53:44.700Z,1.95
2023-04-29T11:56:11.996Z,3.05
2023-04-29T11:58:39.355Z,1.98
2023-04-29T12:01:07.947Z,2.95
2023-04-29T12:03:36.332Z,2.08
2023-04-29T12:06:03.527Z,2.40
2023-04-29T12:08:31.257Z,2.75
2023-04-29T12:10:59.083Z,2.90
2023-04-29T12:13:29.409Z,2.80
2023-04-29T12:15:58.374Z,3.15
2023-04-29T12:18:27.533Z,2.63
2023-04-29T12:20:55.989Z,2.78
2023-04-29T12:23:28.856Z,2.28
2023-04-29T12:26:00.653Z,2.58
2023-04-29T12:28:27.638Z,2.17
2023-04-29T12:30:54.872Z,3.03
2023-04-29T12:33:22.566Z,2.15
2023-04-29T12:35:53.210Z,1.85
2023-04-29T12:38:30.197Z,2.95
2023-04-29T12:40:59.326Z,2.10
2023-04-29T12:43:29.788Z,3.35
2023-04-29T12:46:07.041Z,3.17
2023-04-29T12:48:35.185Z,3.45
2023-04-29T12:51:02.838Z,3.28
2023-04-29T12:53:30.968Z,3.10
2023-04-29T12:55:58.112Z,2.80
2023-04-29T12:58:25.097Z,3.67
2023-04-29T13:00:51.930Z,3.17
2023-04-29T13:03:21.498Z,3.35
2023-04-29T13:05:53.765Z,3.55
2023-04-29T13:08:21.202Z,3.53
2023-04-29T13:10:47.957Z,3.17
2023-04-29T13:13:14.856Z,2.80
2023-04-29T13:15:41.620Z,2.50
2023-04-29T13:18:08.432Z,3.10
2023-04-29T13:20:40.909Z,3.10
2023-04-29T13:23:09.384Z,3.72
2023-04-29T13:25:36.411Z,3.50
2023-04-29T13:28:05.317Z,4.82
2023-04-29T13:30:32.925Z,3.10
2023-04-29T13:33:09.259Z,3.25
2023-04-29T13:35:40.011Z,2.97
2023-04-29T13:38:07.519Z,3.13
2023-04-29T13:40:38.905Z,3.53
2023-04-29T13:43:09.858Z,2.75
2023-04-29T13:45:41.622Z,3.67
2023-04-29T13:48:20.985Z,4.28
2023-04-29T13:51:34.515Z,3.05
2023-04-29T13:54:37.464Z,2.90
2023-04-29T14:04:01.295Z,3.83
2023-04-29T14:06:28.618Z,4.50
2023-04-29T14:08:55.639Z,3.10
2023-04-29T14:11:22.419Z,3.97
2023-04-29T14:13:49.248Z,4.30
2023-04-29T14:16:17.087Z,4.10
2023-04-29T14:18:43.847Z,3.63
2023-04-29T14:21:11.438Z,4.32
2023-04-29T14:23:38.533Z,4.50
2023-04-29T14:26:26.433Z,3.90
2023-04-29T14:28:59.821Z,4.72
2023-04-29T14:31:28.918Z,3.63
2023-04-29T14:33:59.520Z,3.53
2023-04-29T14:36:26.735Z,3.35
2023-04-29T14:38:53.641Z,4.45
2023-04-29T14:41:21.848Z,3.97
2023-04-29T14:43:48.831Z,3.63
2023-04-29T14:46:16.618Z,4.05
2023-04-29T14:48:43.663Z,3.25
2023-04-29T14:51:10.792Z,4.40
2023-04-29T14:53:37.581Z,3.85
2023-04-29T14:56:04.382Z,3.40
2023-04-29T14:58:31.116Z,4.38
2023-04-29T15:00:57.871Z,3.92
2023-04-29T15:03:24.640Z,4.07
2023-04-29T15:05:52.164Z,3.75
2023-04-29T15:08:19.531Z,3.65
2023-04-29T15:10:49.917Z,3.80
2023-04-29T15:13:16.866Z,4.57
2023-04-29T15:15:43.719Z,3.97
2023-04-29T15:18:10.616Z,3.13
2023-04-29T15:20:37.962Z,3.50
2023-04-29T15:23:06.052Z,3.42
2023-04-29T15:25:36.584Z,3.72
2023-04-29T15:28:05.823Z,3.63
2023-04-29T15:30:33.030Z,3.47
2023-04-29T15:32:59.897Z,3.30
2023-04-29T15:35:27.857Z,2.55
2023-04-29T15:37:55.064Z,3.47
2023-04-29T15:40:22.030Z,3.53
2023-04-29T15:42:48.807Z,3.10
2023-04-29T15:45:16.925Z,3.45
2023-04-29T15:47:43.738Z,3.10
2023-04-29T15:50:11.188Z,3.35
2023-04-29T15:52:38.116Z,3.25
2023-04-29T15:55:06.301Z,4.53
2023-04-29T15:57:34.556Z,3.33
2023-04-29T16:00:01.621Z,3.28
2023-04-29T16:02:28.402Z,3.72
2023-04-29T16:04:55.533Z,3.17
2023-04-29T16:07:22.340Z,3.10
2023-04-29T16:09:49.070Z,3.72
2023-04-29T16:12:16.102Z,2.75
2023-04-29T16:14:42.830Z,3.83
2023-04-29T16:17:09.710Z,3.08
2023-04-29T16:19:37.161Z,2.97
2023-04-29T16:22:04.809Z,3.13
2023-04-29T16:24:31.582Z,3.92
2023-04-29T16:26:59.275Z,3.63
2023-04-29T16:29:26.234Z,8.05
2023-04-29T16:31:53.230Z,3.13
2023-04-29T16:34:20.532Z,2.63
2023-04-29T16:36:47.553Z,4.25
2023-04-29T16:39:14.478Z,3.35
2023-04-29T16:41:41.738Z,3.45
2023-04-29T16:44:08.950Z,4.18
2023-04-29T16:46:36.094Z,3.20
2023-04-29T16:49:03.223Z,2.90
2023-04-29T16:51:30.074Z,3.20
2023-04-29T16:53:56.809Z,3.40
2023-04-29T16:56:23.753Z,3.25
2023-04-29T16:58:50.593Z,4.03
2023-04-29T17:01:19.796Z,3.25
2023-04-29T17:03:47.915Z,3.45
2023-04-29T17:06:15.472Z,4.13
2023-04-29T17:08:43.084Z,3.92
2023-04-29T17:11:10.581Z,3.30
2023-04-29T17:13:37.601Z,3.25
2023-04-29T17:16:04.789Z,3.33
2023-04-29T17:18:31.681Z,2.92
2023-04-29T17:20:59.510Z,3.10
2023-04-29T17:23:26.365Z,4.22
2023-04-29T17:25:54.751Z,3.15
2023-04-29T17:28:21.593Z,3.67
2023-04-29T17:30:48.298Z,3.50
2023-04-29T17:33:17.278Z,3.10
2023-04-29T17:35:48.580Z,3.50
2023-04-29T17:38:18.025Z,3.90
2023-04-29T17:41:03.390Z,3.42
2023-04-29T17:43:33.145Z,3.33
2023-04-29T17:46:00.191Z,2.83
2023-04-29T17:48:28.173Z,4.63
2023-04-29T17:50:55.533Z,5.53
2023-04-29T17:53:24.707Z,5.65
2023-04-29T17:55:54.074Z,4.10
2023-04-29T17:58:24.132Z,4.13
2023-04-29T18:00:57.422Z,3.35
2023-04-29T18:03:26.958Z,3.55
2023-04-29T18:05:55.421Z,3.35
2023-04-29T18:08:22.385Z,3.50
2023-04-29T18:10:49.167Z,3.00
2023-04-29T18:13:21.115Z,4.70
2023-04-29T18:15:51.197Z,3.70
2023-04-29T18:18:21.006Z,3.33
2023-04-29T18:20:56.922Z,4.78
2023-04-29T18:23:23.761Z,3.42
2023-04-29T18:25:50.546Z,3.38
2023-04-29T18:28:24.925Z,3.15
2023-04-29T18:30:52.899Z,3.60
2023-04-29T18:33:19.832Z,4.97
2023-04-29T18:35:46.901Z,4.00
2023-04-29T18:38:17.264Z,3.67
2023-04-29T18:40:44.685Z,3.45
2023-04-29T18:43:12.065Z,3.00
2023-04-29T18:45:38.887Z,2.53
2023-04-29T18:48:07.030Z,3.38
2023-04-29T18:50:34.135Z,2.83
2023-04-29T18:53:01.262Z,2.80
2023-04-29T18:55:28.272Z,2.85
2023-04-29T18:57:54.994Z,2.95
2023-04-29T19:00:21.955Z,3.03
2023-04-29T19:02:48.995Z,2.72
2023-04-29T19:05:16.342Z,3.00
2023-04-29T19:07:43.325Z,2.95
2023-04-29T19:10:10.446Z,2.90
2023-04-29T19:12:37.379Z,2.92
2023-04-29T19:15:04.538Z,2.50
2023-04-29T19:17:31.324Z,2.20
2023-04-29T19:19:58.110Z,2.72
2023-04-29T19:22:26.159Z,2.97
2023-04-29T19:24:53.132Z,2.00
2023-04-29T19:27:19.857Z,2.40
2023-04-29T19:29:46.640Z,2.30
2023-04-29T19:32:13.412Z,2.25
2023-04-29T19:34:40.228Z,2.85
2023-04-29T19:37:06.977Z,2.42
2023-04-29T19:39:33.768Z,2.63
2023-04-29T19:42:00.789Z,2.45
2023-04-29T19:44:27.529Z,2.60
2023-04-29T19:46:54.656Z,2.28
2023-04-29T19:49:21.597Z,2.42
2023-04-29T19:51:48.542Z,2.55
2023-04-29T19:54:15.382Z,2.88
2023-04-29T19:56:46.026Z,2.13
2023-04-29T19:59:13.474Z,2.83
2023-04-29T20:01:40.983Z,3.22
2023-04-29T20:04:07.933Z,3.00
2023-04-29T20:06:37.806Z,3.30
2023-04-29T20:09:05.122Z,3.25
2023-04-29T20:11:32.026Z,3.00
2023-04-29T20:13:58.976Z,3.95
2023-04-29T20:16:27.971Z,3.15
2023-04-29T20:18:54.844Z,3.85
2023-04-29T20:21:22.215Z,3.33
2023-04-29T20:23:49.292Z,3.08
2023-04-29T20:26:17.787Z,3.58
2023-04-29T20:28:45.906Z,3.10
2023-04-29T20:31:12.697Z,2.95
2023-04-29T20:33:39.473Z,3.08
2023-04-29T20:36:06.887Z,4.18
2023-04-29T20:38:37.455Z,3.22
2023-04-29T20:44:04.469Z,3.00
2023-04-29T20:46:31.622Z,3.33
2023-04-29T20:48:58.519Z,2.75
2023-04-29T20:51:28.341Z,3.15
2023-04-29T20:53:55.362Z,3.30
2023-04-29T20:56:22.362Z,4.30
2023-04-29T20:58:49.194Z,3.70
2023-04-29T21:01:15.934Z,4.22
2023-04-29T21:03:43.381Z,4.68
2023-04-29T21:06:10.208Z,4.70
2023-04-29T21:08:36.996Z,5.32
2023-04-29T21:11:05.226Z,4.97
2023-04-29T21:13:31.958Z,4.55
2023-04-29T21:15:58.774Z,5.85
2023-04-29T21:18:26.092Z,5.90
2023-04-29T21:20:52.985Z,4.93
2023-04-29T21:23:19.712Z,6.22
2023-04-29T21:25:46.458Z,6.18
2023-04-29T21:28:15.476Z,6.35
2023-04-29T21:30:43.465Z,4.95
2023-04-29T21:33:10.229Z,5.65
2023-04-29T21:35:38.978Z,7.47
2023-04-29T21:38:05.632Z,5.40
2023-04-29T21:40:32.404Z,5.72
2023-04-29T21:42:59.633Z,5.70
2023-04-29T21:45:27.588Z,5.25
2023-04-29T21:47:55.530Z,7.35
2023-04-29T21:50:22.432Z,5.82
2023-04-29T21:52:50.570Z,6.43
2023-04-29T21:55:17.289Z,4.65
2023-04-29T21:57:45.272Z,6.00
2023-04-29T22:00:32.932Z,5.22
2023-04-29T22:03:01.208Z,6.97
2023-04-29T22:05:28.015Z,6.38
2023-04-29T22:07:57.119Z,5.97
2023-04-29T22:10:23.852Z,5.88
2023-04-29T22:12:50.845Z,7.45
2023-04-29T22:15:27.998Z,6.60
2023-04-29T22:17:57.332Z,7.05
2023-04-29T22:20:24.919Z,6.00
2023-04-29T22:22:52.189Z,8.13
2023-04-29T22:25:20.992Z,6.47
2023-04-29T22:27:48.189Z,6.60
2023-04-29T22:30:15.004Z,6.63
2023-04-29T22:32:41.822Z,6.25
2023-04-29T22:35:08.728Z,6.82
2023-04-29T22:37:35.545Z,6.07
2023-04-29T22:40:02.686Z,6.45
2023-04-29T22:42:29.406Z,7.28
2023-04-29T22:44:56.091Z,8.50
2023-04-29T22:47:22.860Z,8.73
2023-04-29T22:49:49.917Z,8.48
2023-04-29T22:52:16.621Z,9.45
2023-04-29T22:54:43.597Z,6.82
2023-04-29T22:57:10.573Z,8.30
2023-04-29T22:59:37.260Z,9.48
2023-04-29T23:02:04.056Z,8.68
2023-04-29T23:04:32.372Z,9.68
2023-04-29T23:06:59.197Z,11.13
2023-04-29T23:09:26.214Z,9.35
2023-04-29T23:11:52.967Z,9.80
2023-04-29T23:14:22.469Z,8.65
2023-04-29T23:16:49.235Z,7.78
2023-04-29T23:19:16.280Z,7.57
2023-04-29T23:21:42.952Z,6.88
2023-04-29T23:24:09.777Z,7.25
2023-04-29T23:26:36.450Z,6.05
2023-04-29T23:29:03.137Z,7.63
2023-04-29T23:31:29.863Z,6.22
2023-04-29T23:33:56.597Z,6.55
2023-04-29T23:36:23.412Z,5.82
2023-04-29T23:38:50.722Z,7.05
2023-04-29T23:41:23.778Z,8.77
2023-04-29T23:43:50.785Z,7.20
2023-04-29T23:46:17.580Z,7.22
2023-04-29T23:48:44.364Z,9.15
2023-04-29T23:51:11.143Z,7.80
2023-04-29T23:53:39.314Z,7.03
2023-04-29T23:56:06.355Z,7.78
2023-04-29T23:58:33.272Z,8.20
